Avoca, Wisconsin
Current Conditions -  °F | °C
As of 5:56 AM on Monday 24 Nov 2014 (Local Time) from KLNR Reporting Station
Overcast Overcast  
Wind Chill:   Ceiling: 1200
Heat Index:   Visibility: 10mi
Dew Point:   Wind: 12mph
Humidity: 76%   Direction: 290°WNW
Pressure: 29.12"   Gusts: NA
Location:  43.18°N, 90.32°W
Report Text: KLNR 241156Z AUTO 29010KT 10SM OVC012 06/02 A2912 RMK AO2 SLP858 60001 70060 T00610022 10100 20061 53003
Loading
Personal Weather Stations






























Interactive Weather Map New forecast layout! Learn more

10-Day Weather Forecast

Advertisements
Track Severe Weather on mobile